Terminal Aerodrome Forecast
Issued by NWS Louisville, KY

Home | Current Version | Previous Version | Text Only | Print | Product List | Glossary On
Versions: 1 2 3 4 5 6 7 8 9 10 11 12
000
FTUS43 KLMK 221100
TAFSDF
TAF
KSDF 221124Z 2212/2318 35006KT P6SM BKN035
     FM221400 02006KT P6SM SCT050
     FM230300 VRB03KT P6SM SKC
     FM231000 00000KT 3SM BR SKC
     FM231300 VRB03KT P6SM FEW250=

USA.gov is the U.S. government's official web portal to all federal, state and local government web resources and services.